Acosta, Pennsylvania
Current Conditions -  °F | °C
As of 4:19 AM on Saturday 01 Nov 2014 (Local Time) from KJST Reporting Station
Light Rain Light Rain  
Wind Chill: 30°   Ceiling: 600
Heat Index: 36°   Visibility: 5mi
Dew Point: 34°   Wind: 7mph
Humidity: 93%   Direction: 40°NE
Pressure: 29.82"   Gusts: NA
Location:  40.11°N, 79.07°W
Report Text: KJST 010819Z AUTO 04006KT 5SM -RA BR BKN006 BKN015 OVC037 02/01 A2982 RMK AO2 RAB0755 P0000 T00220011
Loading
Personal Weather Stations






























Interactive Weather Map
Tropical Storm Tracking
New forecast layout! Learn more

10-Day Weather Forecast

Advertisements
Track Severe Weather on mobile